Time;durP1;ratioP1;P1;durP2;ratioP2;P2;SDS_P1;SDS_P2;PMS_P1;PMS_P2;Temp;Humidity;BMP_temperature;BMP_pressure;BME280_temperature;BME280_humidity;BME280_pressure;Samples;Min_cycle;Max_cycle;Signal;HPM_P1;HPM_P2
2022/03/02 00:03:01;;;;;;;20.15;12.60;;;;;;;0.05;100.00;100514.77;1728937;83;21335;-77
2022/03/02 00:06:09;;;;;;;14.75;10.50;;;;;;;0.07;100.00;100514.66;1729310;83;21296;-76
2022/03/02 00:09:14;;;;;;;15.95;11.85;;;;;;;0.08;100.00;100524.45;1730002;83;21285;-82
2022/03/02 00:12:19;;;;;;;16.20;12.33;;;;;;;0.09;100.00;100516.27;1729325;83;21766;-76
2022/03/02 00:15:25;;;;;;;17.12;11.60;;;;;;;0.11;100.00;100511.66;1729824;83;21316;-77
2022/03/02 00:18:32;;;;;;;18.82;12.68;;;;;;;0.12;100.00;100509.34;1728582;83;21364;-83
2022/03/02 00:21:36;;;;;;;16.87;12.05;;;;;;;0.14;100.00;100511.46;1729823;83;21315;-83
2022/03/02 00:24:43;;;;;;;21.60;13.65;;;;;;;0.14;100.00;100511.46;1730012;83;21280;-84
2022/03/02 00:27:50;;;;;;;15.58;10.95;;;;;;;0.14;100.00;100508.77;1729014;83;21210;-83
2022/03/02 00:30:55;;;;;;;13.38;9.85;;;;;;;0.15;100.00;100511.83;1729875;83;21952;-84
2022/03/02 00:34:00;;;;;;;15.98;10.63;;;;;;;0.16;100.00;100498.75;1728579;83;21198;-84
2022/03/02 00:37:06;;;;;;;17.35;11.65;;;;;;;0.16;100.00;100504.63;1728403;83;21512;-84
2022/03/02 00:40:13;;;;;;;15.38;11.50;;;;;;;0.14;100.00;100496.66;1725544;83;21281;-78
2022/03/02 00:43:12;;;;;;;18.17;13.35;;;;;;;0.14;100.00;100493.97;1733828;82;21890;-84
2022/03/02 00:46:19;;;;;;;18.00;14.15;;;;;;;0.15;100.00;100494.34;1734787;83;21169;-77
2022/03/02 00:49:26;;;;;;;21.70;13.78;;;;;;;0.15;100.00;100494.34;1734980;83;21277;-77
2022/03/02 00:52:32;;;;;;;14.87;11.05;;;;;;;0.14;100.00;100487.25;1734270;83;21738;-85
2022/03/02 00:55:37;;;;;;;18.07;13.08;;;;;;;0.11;100.00;100483.41;1734978;82;21188;-77
2022/03/02 00:58:43;;;;;;;21.02;17.95;;;;;;;0.12;100.00;100486.96;1735098;83;21778;-84
2022/03/02 01:01:49;;;;;;;19.15;13.43;;;;;;;0.14;100.00;100499.81;1734815;83;21323;-77
2022/03/02 01:04:55;;;;;;;19.98;15.28;;;;;;;0.14;100.00;100489.05;1735016;83;21320;-77
2022/03/02 01:08:02;;;;;;;20.75;15.68;;;;;;;0.15;100.00;100488.11;1733954;83;21700;-76
2022/03/02 01:11:08;;;;;;;17.73;12.80;;;;;;;0.16;100.00;100487.98;1734984;83;21404;-76
2022/03/02 01:14:13;;;;;;;19.48;13.40;;;;;;;0.15;100.00;100488.97;1735017;83;21284;-76
2022/03/02 01:17:18;;;;;;;24.27;18.87;;;;;;;0.17;100.00;100482.98;1734304;82;21188;-83
2022/03/02 01:20:25;;;;;;;20.60;15.78;;;;;;;0.20;100.00;100478.75;1733504;83;21332;-76
2022/03/02 01:23:31;;;;;;;20.88;13.53;;;;;;;0.20;100.00;100480.58;1733627;83;21329;-76
2022/03/02 01:26:36;;;;;;;17.73;14.05;;;;;;;0.21;100.00;100468.36;1733561;83;21319;-77
2022/03/02 01:29:42;;;;;;;23.35;17.67;;;;;;;0.22;100.00;100468.73;1733558;83;21733;-76
2022/03/02 01:32:48;;;;;;;19.65;13.78;;;;;;;0.21;100.00;100466.16;1734120;83;21265;-82
2022/03/02 01:35:53;;;;;;;18.02;14.38;;;;;;;0.21;100.00;100460.77;1734817;82;21224;-76
2022/03/02 01:38:59;;;;;;;22.00;16.55;;;;;;;0.21;100.00;100456.73;1734566;83;21367;-83
2022/03/02 01:42:05;;;;;;;18.30;14.58;;;;;;;0.20;100.00;100457.23;1724510;83;21748;-82
2022/03/02 01:45:12;;;;;;;21.35;15.18;;;;;;;0.22;100.00;100458.45;1772185;81;21803;-76
2022/03/02 01:48:17;;;;;;;24.87;17.60;;;;;;;0.23;100.00;100463.72;1735333;82;21213;-76
2022/03/02 01:51:22;;;;;;;19.80;15.95;;;;;;;0.24;100.00;100460.57;1772186;81;21275;-83
2022/03/02 01:54:29;;;;;;;20.12;15.23;;;;;;;0.25;100.00;100458.25;1734283;82;21861;-76
2022/03/02 01:57:34;;;;;;;22.70;14.80;;;;;;;0.25;100.00;100455.07;1771277;81;21323;-76
2022/03/02 02:00:39;;;;;;;15.58;12.45;;;;;;;0.27;100.00;100461.68;1735317;82;21188;-82
2022/03/02 02:03:46;;;;;;;20.80;14.07;;;;;;;0.30;100.00;100460.13;1772052;81;21694;-76
2022/03/02 02:06:52;;;;;;;19.52;13.55;;;;;;;0.33;100.00;100460.39;1734816;82;21299;-76
2022/03/02 02:09:57;;;;;;;19.00;13.93;;;;;;;0.35;100.00;100463.36;1771344;81;21277;-76
2022/03/02 02:13:03;;;;;;;17.17;12.85;;;;;;;0.37;100.00;100464.09;1733798;82;21235;-76
2022/03/02 02:16:12;;;;;;;19.75;13.32;;;;;;;0.39;100.00;100462.67;1771976;81;21326;-82
2022/03/02 02:19:18;;;;;;;19.30;13.25;;;;;;;0.41;100.00;100461.58;1735578;82;21200;-82
2022/03/02 02:22:24;;;;;;;19.82;12.98;;;;;;;0.42;100.00;100453.87;1771425;81;21308;-76
2022/03/02 02:25:31;;;;;;;16.20;12.82;;;;;;;0.42;100.00;100451.17;1734232;82;21720;-82
2022/03/02 02:28:37;;;;;;;18.40;12.33;;;;;;;0.42;100.00;100447.63;1771128;81;21272;-77
2022/03/02 02:31:46;;;;;;;16.52;11.97;;;;;;;0.40;100.00;100453.13;1734951;82;21355;-82
2022/03/02 02:34:51;;;;;;;16.73;13.20;;;;;;;0.41;100.00;100444.57;1772072;81;21300;-76
2022/03/02 02:37:56;;;;;;;16.65;12.90;;;;;;;0.41;100.00;100448.12;1734083;82;21299;-83
2022/03/02 02:41:02;;;;;;;18.05;12.80;;;;;;;0.42;100.00;100447.14;1772403;80;21604;-82
2022/03/02 02:44:07;;;;;;;16.95;12.05;;;;;;;0.44;100.00;100443.02;1748528;82;21259;-76
2022/03/02 02:47:13;;;;;;;21.70;15.03;;;;;;;0.44;100.00;100447.06;1729392;83;21197;-82
2022/03/02 02:50:35;;;;;;;17.48;11.90;;;;;;;0.43;100.00;100444.00;1729950;83;21202;-83
2022/03/02 02:53:39;;;;;;;;;;;;;;;0.39;100.00;100437.10;1732792;83;21288;-83
2022/03/02 02:56:45;;;;;;;13.45;10.03;;;;;;;0.39;100.00;100429.03;1729886;83;20582;-84
2022/03/02 02:59:50;;;;;;;16.60;11.03;;;;;;;0.40;100.00;100429.40;1730103;83;21296;-84
2022/03/02 03:02:55;;;;;;;18.98;12.13;;;;;;;0.40;100.00;100426.71;1730064;83;21309;-76
2022/03/02 03:06:01;;;;;;;17.25;12.33;;;;;;;0.39;100.00;100419.13;1730032;83;21288;-83
2022/03/02 03:09:05;;;;;;;17.57;11.78;;;;;;;0.38;100.00;100414.72;1729338;83;21173;-75
2022/03/02 03:12:12;;;;;;;14.40;10.00;;;;;;;0.38;100.00;100409.83;1729523;83;21851;-75
2022/03/02 03:15:19;;;;;;;17.73;11.40;;;;;;;0.39;100.00;100411.54;1730000;83;21166;-76
2022/03/02 03:18:24;;;;;;;17.12;11.45;;;;;;;0.38;100.00;100403.95;1729970;83;21193;-76
2022/03/02 03:21:29;;;;;;;20.48;13.03;;;;;;;0.37;100.00;100408.08;1729863;83;21237;-84
2022/03/02 03:24:34;;;;;;;20.48;12.28;;;;;;;0.36;100.00;100412.61;1729998;83;21166;-76
2022/03/02 03:27:42;;;;;;;23.38;11.95;;;;;;;0.37;100.00;100399.52;1729142;83;21885;-76
2022/03/02 03:30:49;;;;;;;23.87;15.45;;;;;;;0.41;100.00;100406.41;1729865;83;21754;-76
2022/03/02 03:33:54;;;;;;;25.08;16.82;;;;;;;0.41;100.00;100402.86;1729921;83;21292;-83
2022/03/02 03:37:00;;;;;;;24.80;15.28;;;;;;;0.41;100.00;100404.20;1729591;83;21339;-76
2022/03/02 03:40:05;;;;;;;28.52;15.00;;;;;;;0.40;100.00;100407.88;1728826;83;21312;-82
2022/03/02 03:43:10;;;;;;;25.82;14.43;;;;;;;0.39;100.00;100408.84;1727134;82;21213;-83
2022/03/02 03:46:16;;;;;;;25.50;13.88;;;;;;;0.39;100.00;100406.16;1734767;83;21205;-76
2022/03/02 03:49:22;;;;;;;28.73;17.20;;;;;;;0.39;100.00;100404.81;1734487;83;21782;-83
2022/03/02 03:52:28;;;;;;;23.40;13.85;;;;;;;0.39;100.00;100401.63;1734180;83;21217;-76
2022/03/02 03:55:34;;;;;;;26.85;16.02;;;;;;;0.41;100.00;100400.17;1734825;83;21280;-83
2022/03/02 03:58:40;;;;;;;24.12;15.65;;;;;;;0.44;100.00;100399.96;1734872;83;21741;-79
2022/03/02 04:01:45;;;;;;;25.12;15.78;;;;;;;0.46;100.00;100402.05;1734643;83;21209;-84
2022/03/02 04:04:51;;;;;;;25.32;15.65;;;;;;;0.47;100.00;100392.53;1734831;83;21293;-76
2022/03/02 04:07:58;;;;;;;30.40;16.02;;;;;;;0.48;100.00;100388.87;1733901;82;21320;-82
2022/03/02 04:11:04;;;;;;;26.70;16.73;;;;;;;0.47;100.00;100402.41;1734820;83;21293;-83
2022/03/02 04:14:11;;;;;;;32.25;19.00;;;;;;;0.47;100.00;100397.92;1733520;83;21356;-82
2022/03/02 04:17:17;;;;;;;29.32;18.40;;;;;;;0.50;100.00;100400.86;1733576;83;21244;-76
2022/03/02 04:20:22;;;;;;;26.48;15.88;;;;;;;0.53;100.00;100397.09;1734044;83;21313;-82
2022/03/02 04:23:28;;;;;;;25.62;16.05;;;;;;;0.54;100.00;100388.05;1733636;83;21898;-83
2022/03/02 04:26:33;;;;;;;30.48;17.55;;;;;;;0.53;100.00;100392.58;1734739;83;21818;-75
2022/03/02 04:29:40;;;;;;;31.60;18.40;;;;;;;0.54;100.00;100382.66;1734650;83;21281;-79
2022/03/02 04:32:45;;;;;;;30.85;15.58;;;;;;;0.53;100.00;100383.64;1735124;83;21820;-76
2022/03/02 04:35:50;;;;;;;30.62;19.50;;;;;;;0.54;100.00;100385.36;1734927;83;21808;-83
2022/03/02 04:38:57;;;;;;;24.92;16.40;;;;;;;0.55;100.00;100381.20;1734994;83;21280;-76
2022/03/02 04:42:03;;;;;;;28.98;17.48;;;;;;;0.55;100.00;100386.58;1734665;83;21284;-82
2022/03/02 04:45:09;;;;;;;31.48;17.82;;;;;;;0.56;100.00;100380.70;1726979;82;21300;-81
2022/03/02 04:48:14;;;;;;;28.80;16.32;;;;;;;0.55;100.00;100385.72;1770814;81;21316;-81
2022/03/02 04:51:20;;;;;;;32.23;18.02;;;;;;;0.56;100.00;100388.30;1734138;82;21165;-75
2022/03/02 04:57:57;;;;;;;36.00;21.12;;;;;;;0.55;100.00;100400.04;1734769;82;21177;-75
2022/03/02 05:01:03;;;;;;;37.67;20.20;;;;;;;0.56;100.00;100388.78;1771016;81;21284;-82
2022/03/02 05:04:09;;;;;;;33.10;17.50;;;;;;;0.56;100.00;100397.72;1735218;82;21812;-82
2022/03/02 05:07:14;;;;;;;32.88;19.48;;;;;;;0.57;100.00;100392.73;1771469;81;21335;-76
2022/03/02 05:10:20;;;;;;;26.52;16.37;;;;;;;0.56;100.00;100399.06;1734900;82;21817;-82
2022/03/02 05:13:25;;;;;;;30.15;17.62;;;;;;;0.57;100.00;100396.77;1772101;81;21287;-82
2022/03/02 05:16:33;;;;;;;30.77;16.80;;;;;;;0.59;100.00;100393.47;1735350;82;21323;-76
2022/03/02 05:19:36;;;;;;;35.50;17.07;;;;;;;0.60;100.00;100398.36;1772202;81;21138;-76
2022/03/02 05:22:41;;;;;;;32.50;19.37;;;;;;;0.62;100.00;100393.26;1735141;82;21195;-76
2022/03/02 05:25:48;;;;;;;36.33;18.23;;;;;;;0.65;100.00;100406.97;1772172;81;21794;-82
2022/03/02 05:28:53;;;;;;;31.95;18.75;;;;;;;0.66;100.00;100408.67;1735249;82;21171;-82
2022/03/02 05:31:58;;;;;;;34.40;19.82;;;;;;;0.70;100.00;100405.66;1770736;81;21196;-82
2022/03/02 05:35:04;;;;;;;34.18;21.02;;;;;;;0.70;100.00;100411.53;1735176;82;21279;-76
2022/03/02 05:38:09;;;;;;;38.83;19.77;;;;;;;0.70;100.00;100409.69;1770789;81;21858;-76
2022/03/02 05:41:14;;;;;;;34.83;19.20;;;;;;;0.73;100.00;100407.28;1734482;82;21773;-76
2022/03/02 05:44:19;;;;;;;32.98;21.40;;;;;;;0.76;100.00;100405.72;1771455;80;21316;-82
2022/03/02 05:47:26;;;;;;;37.33;21.52;;;;;;;0.79;100.00;100405.97;1748010;82;21297;-82
2022/03/02 05:50:31;;;;;;;31.50;20.30;;;;;;;0.81;100.00;100402.70;1729801;83;21269;-76
2022/03/02 05:53:40;;;;;;;34.70;19.70;;;;;;;0.85;100.00;100402.36;1729834;83;21162;-76
2022/03/02 05:56:44;;;;;;;39.88;22.10;;;;;;;0.88;100.00;100403.95;1729679;83;21320;-76
2022/03/02 05:59:49;;;;;;;33.20;18.60;;;;;;;0.88;100.00;100408.84;1729791;83;21356;-76
2022/03/02 06:02:55;;;;;;;31.68;18.70;;;;;;;0.87;100.00;100411.17;1728880;83;21809;-76
2022/03/02 06:06:04;;;;;;;42.38;24.67;;;;;;;0.88;100.00;100409.34;1709313;83;21176;-76
2022/03/02 06:09:14;;;;;;;27.35;17.12;;;;;;;0.92;100.00;100412.19;1699651;84;21349;-76
2022/03/02 06:12:21;;;;;;;28.50;17.00;;;;;;;0.94;100.00;100402.14;1699286;84;21923;-76
2022/03/02 06:15:26;;;;;;;37.35;17.77;;;;;;;0.99;100.00;100417.52;1699916;84;21175;-75
2022/03/02 06:18:32;;;;;;;33.05;20.08;;;;;;;1.01;100.00;100402.09;1698425;84;21557;-82
2022/03/02 06:21:38;;;;;;;26.70;17.48;;;;;;;1.05;100.00;100404.93;1699648;83;21216;-76
2022/03/02 06:24:43;;;;;;;24.63;16.05;;;;;;;1.05;100.00;100406.28;1699577;84;21297;-76
2022/03/02 06:27:49;;;;;;;26.35;15.23;;;;;;;1.05;100.00;100407.63;1698859;84;21232;-82
2022/03/02 06:30:54;;;;;;;25.77;14.20;;;;;;;1.08;100.00;100399.30;1717566;83;21883;-76
2022/03/02 06:34:01;;;;;;;21.42;13.13;;;;;;;1.09;100.00;100395.66;1716274;83;21275;-76
2022/03/02 06:37:06;;;;;;;22.05;14.40;;;;;;;1.13;100.00;100394.45;1716283;83;21752;-76
2022/03/02 06:40:17;;;;;;;24.98;15.00;;;;;;;1.16;100.00;100398.25;1722366;82;21700;-76
2022/03/02 06:43:24;;;;;;;31.35;16.57;;;;;;;1.21;100.00;100396.06;1747708;82;21187;-84
2022/03/02 06:46:46;;;;;;;24.63;14.25;;;;;;;1.23;100.00;100391.44;1743990;82;21180;-76
2022/03/02 06:50:16;;;;;;;23.75;13.90;;;;;;;1.27;100.00;100392.94;1741876;82;21270;-84
2022/03/02 06:53:22;;;;;;;22.32;13.65;;;;;;;1.32;100.00;100391.25;1742051;82;21353;-84
2022/03/02 06:56:29;;;;;;;28.45;14.95;;;;;;;1.35;100.00;100393.69;1721897;82;21902;-75
2022/03/02 06:59:39;;;;;;;24.82;14.28;;;;;;;1.38;100.00;100391.27;1711696;84;21990;-83
2022/03/02 07:02:46;;;;;;;19.67;11.70;;;;;;;1.40;100.00;100390.16;1711302;82;21325;-83
2022/03/02 07:05:54;;;;;;;25.60;17.00;;;;;;;1.45;100.00;100387.97;1712207;84;21349;-75
2022/03/02 07:08:58;;;;;;;21.20;13.03;;;;;;;1.49;100.00;100398.04;1717656;82;21353;-83
2022/03/02 07:12:06;;;;;;;18.75;13.00;;;;;;;1.52;100.00;100388.38;1709362;83;21177;-83
2022/03/02 07:15:14;;;;;;;21.02;13.20;;;;;;;1.56;100.00;100383.13;1705464;83;21771;-76
2022/03/02 07:18:14;;;;;;;20.60;13.80;;;;;;;1.58;100.00;100385.21;1710238;84;21215;-76
2022/03/02 07:21:07;;;;;;;30.17;18.25;;;;;;;1.61;100.00;100379.59;1706415;83;21289;-83
2022/03/02 07:24:17;;;;;;;24.87;16.87;;;;;;;1.63;100.00;100383.02;1704060;84;21834;-76
2022/03/02 07:27:09;;;;;;;29.37;18.77;;;;;;;1.66;100.00;100388.19;1703953;84;21201;-85
2022/03/02 07:29:55;;;;;;;34.10;19.25;;;;;;;1.73;100.00;100390.77;1703420;84;21317;-76
2022/03/02 07:32:50;;;;;;;23.12;14.55;;;;;;;1.77;100.00;100370.68;1702680;84;21229;-76
2022/03/02 07:35:38;;;;;;;21.60;13.93;;;;;;;1.83;100.00;100385.52;1699186;84;21175;-76
2022/03/02 07:38:32;;;;;;;21.27;14.20;;;;;;;1.87;100.00;100389.70;1703510;84;21189;-76
2022/03/02 07:41:37;;;;;;;27.77;16.25;;;;;;;1.91;100.00;100378.20;1714627;82;21370;-75
2022/03/02 07:44:44;;;;;;;22.45;15.03;;;;;;;1.91;100.00;100370.10;1707456;83;21299;-75
2022/03/02 07:47:50;;;;;;;25.27;15.08;;;;;;;1.97;100.00;100375.02;1711721;83;21312;-82
2022/03/02 07:50:55;;;;;;;23.42;16.73;;;;;;;2.01;100.00;100376.50;1709328;83;21186;-75
2022/03/02 07:54:02;;;;;;;22.45;15.70;;;;;;;2.05;100.00;100373.44;1695969;84;21296;-76
2022/03/02 07:57:08;;;;;;;20.92;13.95;;;;;;;2.06;100.00;100370.25;1715443;83;21325;-75
2022/03/02 08:00:17;;;;;;;19.65;12.82;;;;;;;2.05;100.00;100373.94;1759140;80;21284;-76
2022/03/02 08:03:23;;;;;;;21.73;13.75;;;;;;;2.04;100.00;100371.73;1722216;82;21300;-76
2022/03/02 08:06:28;;;;;;;18.35;12.53;;;;;;;2.04;100.00;100364.12;1759425;81;21370;-76
2022/03/02 08:09:36;;;;;;;26.37;17.50;;;;;;;2.06;100.00;100362.16;1747517;81;21165;-83
2022/03/02 08:12:42;;;;;;;23.87;17.02;;;;;;;2.11;100.00;100365.84;1721556;82;21872;-82
2022/03/02 08:15:48;;;;;;;24.40;16.25;;;;;;;2.10;100.00;100348.80;1763838;81;21197;-76
2022/03/02 08:18:54;;;;;;;21.97;15.45;;;;;;;2.12;100.00;100342.80;1714837;82;21275;-76
2022/03/02 08:22:10;;;;;;;30.50;17.62;;;;;;;2.15;100.00;100335.79;1747040;81;21311;-83
2022/03/02 08:25:16;;;;;;;22.17;15.05;;;;;;;2.18;100.00;100341.45;1763148;81;21209;-76
2022/03/02 08:28:25;;;;;;;24.47;16.52;;;;;;;2.20;100.00;100333.58;1713056;82;21298;-76
2022/03/02 08:31:31;;;;;;;29.27;21.17;;;;;;;2.24;100.00;100330.16;1759362;80;21324;-82
2022/03/02 08:34:37;;;;;;;22.77;14.30;;;;;;;2.26;100.00;100316.92;1714074;82;21371;-76
2022/03/02 08:37:43;;;;;;;21.33;13.48;;;;;;;2.30;100.00;100318.86;1750469;81;21364;-82
2022/03/02 08:40:50;;;;;;;22.22;12.78;;;;;;;2.32;100.00;100320.11;1762557;81;21818;-76
2022/03/02 08:43:57;;;;;;;19.75;13.53;;;;;;;2.34;100.00;100316.78;1751657;81;21312;-76
2022/03/02 08:47:04;;;;;;;25.90;16.85;;;;;;;2.35;100.00;100308.55;1717538;82;21299;-83
2022/03/02 08:50:10;;;;;;;23.70;17.10;;;;;;;2.41;100.00;100311.27;1752125;81;21670;-76
2022/03/02 08:53:18;;;;;;;27.32;17.75;;;;;;;2.47;100.00;100312.11;1747440;81;21874;-74
2022/03/02 08:56:23;;;;;;;20.97;14.15;;;;;;;2.49;100.00;100307.44;1731965;82;21279;-77
2022/03/02 08:59:30;;;;;;;21.97;13.50;;;;;;;2.51;100.00;100304.98;1742165;81;21316;-80
2022/03/02 09:02:38;;;;;;;18.62;12.80;;;;;;;2.55;100.00;100306.95;1755453;81;21311;-83
2022/03/02 09:05:46;;;;;;;21.75;14.58;;;;;;;2.56;100.00;100304.61;1765203;81;21193;-82
2022/03/02 09:08:51;;;;;;;23.22;15.48;;;;;;;2.55;100.00;100302.41;1720832;82;21892;-76
2022/03/02 09:11:57;;;;;;;18.25;13.68;;;;;;;2.58;100.00;100296.38;1758383;81;21929;-83
2022/03/02 09:15:06;;;;;;;24.92;17.30;;;;;;;2.61;100.00;100294.30;1762370;80;21289;-82
2022/03/02 09:18:14;;;;;;;21.77;13.83;;;;;;;2.66;100.00;100293.42;1759896;81;21268;-75
2022/03/02 09:21:20;;;;;;;17.32;12.47;;;;;;;2.70;100.00;100285.93;1701097;84;21898;-82
2022/03/02 09:24:25;;;;;;;16.67;11.35;;;;;;;2.72;100.00;100286.16;1708768;83;21925;-83
2022/03/02 09:27:32;;;;;;;20.17;13.60;;;;;;;2.74;100.00;100288.25;1765321;81;21315;-82
2022/03/02 09:30:38;;;;;;;17.77;11.60;;;;;;;2.79;100.00;100287.38;1750230;81;21324;-76
2022/03/02 09:33:44;;;;;;;20.27;12.73;;;;;;;2.83;100.00;100289.84;1707367;84;21180;-79
2022/03/02 09:36:50;;;;;;;19.15;14.60;;;;;;;2.85;100.00;100279.75;1698959;83;21308;-84
2022/03/02 09:39:55;;;;;;;20.52;13.53;;;;;;;2.88;100.00;100282.20;1700199;83;21229;-85
2022/03/02 09:43:10;;;;;;;16.32;10.68;;;;;;;2.90;100.00;100282.92;1701248;83;21319;-85
2022/03/02 09:46:16;;;;;;;17.05;10.15;;;;;;;2.91;100.00;100268.42;1722418;82;21318;-85
2022/03/02 09:49:22;;;;;;;16.02;10.53;;;;;;;2.95;100.00;100273.94;1755595;81;21859;-76
2022/03/02 09:52:28;;;;;;;16.60;10.58;;;;;;;2.98;100.00;100259.68;1767974;81;21308;-76
2022/03/02 09:55:35;;;;;;;17.65;11.93;;;;;;;3.01;100.00;100265.30;1701580;84;21284;-85
2022/03/02 09:58:46;;;;;;;14.15;10.60;;;;;;;3.04;100.00;100262.35;1752409;81;21165;-76
2022/03/02 10:01:51;;;;;;;15.98;11.55;;;;;;;3.09;100.00;100264.17;1707990;82;21208;-76
2022/03/02 10:04:57;;;;;;;13.10;9.68;;;;;;;3.11;100.00;100256.81;1741680;81;21379;-79
2022/03/02 10:08:11;;;;;;;16.27;10.23;;;;;;;3.11;100.00;100250.05;1746768;81;21288;-85
2022/03/02 10:11:17;;;;;;;14.47;10.30;;;;;;;3.12;100.00;100248.20;1752614;81;21328;-85
2022/03/02 10:14:22;;;;;;;19.82;11.15;;;;;;;3.13;100.00;100242.66;1756934;81;21268;-76
2022/03/02 10:17:29;;;;;;;16.93;10.32;;;;;;;3.16;100.00;100238.36;1750873;81;21842;-85
2022/03/02 10:20:38;;;;;;;18.87;10.63;;;;;;;3.18;100.00;100240.42;1752091;81;21276;-76
2022/03/02 10:23:47;;;;;;;21.95;13.20;;;;;;;3.21;100.00;100232.06;1743731;81;21940;-84
2022/03/02 10:26:59;;;;;;;19.07;13.68;;;;;;;3.25;100.00;100233.52;1713994;82;21669;-84
2022/03/02 10:30:12;;;;;;;19.80;12.58;;;;;;;3.35;100.00;100227.32;1753932;81;21778;-75
2022/03/02 10:33:29;;;;;;;19.62;13.98;;;;;;;3.47;100.00;100223.53;1761263;81;21292;-76
2022/03/02 10:36:37;;;;;;;24.72;14.65;;;;;;;3.55;100.00;100223.23;1749848;81;21838;-76
2022/03/02 10:39:58;;;;;;;21.90;14.03;;;;;;;3.61;100.00;100219.14;1766485;81;21281;-76
2022/03/02 10:43:06;;;;;;;20.72;11.15;;;;;;;3.64;100.00;100214.83;1747296;81;21287;-76
2022/03/02 10:46:11;;;;;;;16.17;10.23;;;;;;;3.72;100.00;100212.81;1740557;81;21808;-76
2022/03/02 10:49:20;;;;;;;14.75;9.08;;;;;;;3.89;100.00;100209.95;1758492;81;21342;-76
2022/03/02 10:52:28;;;;;;;12.20;8.10;;;;;;;4.12;100.00;100206.55;1777606;80;21326;-76
2022/03/02 10:55:34;;;;;;;11.60;7.33;;;;;;;4.28;100.00;100198.28;1763694;80;21153;-76
2022/03/02 10:58:44;;;;;;;10.32;6.70;;;;;;;4.40;100.00;100194.94;1772474;80;21734;-76
2022/03/02 11:01:49;;;;;;;10.28;6.50;;;;;;;4.49;100.00;100194.10;1780609;80;21382;-75
2022/03/02 11:04:55;;;;;;;10.35;6.42;;;;;;;4.52;100.00;100187.56;1754416;80;22319;-76
2022/03/02 11:08:02;;;;;;;8.78;5.90;;;;;;;4.55;100.00;100195.39;1772810;80;21674;-76
2022/03/02 11:11:11;;;;;;;9.58;6.80;;;;;;;4.55;100.00;100191.33;1782575;80;21802;-76
2022/03/02 11:14:19;;;;;;;10.15;6.25;;;;;;;4.62;100.00;100189.78;1748533;80;21240;-84
2022/03/02 11:17:26;;;;;;;10.43;6.65;;;;;;;4.72;100.00;100189.78;1771207;80;21200;-84
2022/03/02 11:20:35;;;;;;;9.30;5.85;;;;;;;4.79;100.00;100178.22;1779382;80;21325;-84
2022/03/02 11:23:52;;;;;;;9.13;5.87;;;;;;;4.80;100.00;100186.73;1782584;80;21852;-84
2022/03/02 11:26:58;;;;;;;7.22;5.03;;;;;;;4.80;100.00;100182.66;1768697;80;21196;-83
2022/03/02 11:30:14;;;;;;;6.53;4.87;;;;;;;4.81;100.00;100180.80;1775691;80;21252;-76
2022/03/02 11:33:19;;;;;;;6.55;4.30;;;;;;;4.87;100.00;100181.08;1753997;80;21349;-83
2022/03/02 11:36:25;;;;;;;7.30;4.70;;;;;;;4.93;100.00;100178.28;1743021;80;21169;-84
2022/03/02 11:39:33;;;;;;;5.75;4.40;;;;;;;5.00;100.00;100183.51;1762275;80;21774;-83
2022/03/02 11:42:42;;;;;;;5.10;4.37;;;;;;;5.04;100.00;100179.52;1769175;80;21288;-83
2022/03/02 11:45:49;;;;;;;6.45;4.45;;;;;;;5.07;100.00;100179.71;1773909;80;21685;-76
2022/03/02 11:48:55;;;;;;;6.25;4.42;;;;;;;5.07;100.00;100183.77;1766114;80;21286;-76
2022/03/02 11:52:14;;;;;;;4.45;3.90;;;;;;;5.06;100.00;100180.21;1751907;80;21885;-76
2022/03/02 11:55:24;;;;;;;8.18;4.55;;;;;;;5.07;100.00;100179.71;1741586;81;21269;-76
2022/03/02 11:58:30;;;;;;;5.33;3.77;;;;;;;5.06;100.00;100182.07;1750204;81;21304;-83
2022/03/02 12:01:50;;;;;;;5.83;4.33;;;;;;;5.07;100.00;100179.20;1759351;81;21256;-83
2022/03/02 12:05:11;;;;;;;5.95;4.20;;;;;;;5.09;100.00;100171.80;1756851;80;21284;-76
2022/03/02 12:08:19;;;;;;;5.25;3.85;;;;;;;5.10;100.00;100171.30;1755888;81;21279;-83
2022/03/02 12:11:33;;;;;;;5.30;3.72;;;;;;;5.04;100.00;100171.88;1757189;81;21276;-76
2022/03/02 12:15:05;;;;;;;5.40;3.80;;;;;;;4.88;100.00;100176.00;1757963;81;21266;-77
2022/03/02 12:18:18;;;;;;;6.20;4.83;;;;;;;4.77;100.00;100178.02;1737309;81;21287;-84
2022/03/02 12:21:24;;;;;;;7.25;4.20;;;;;;;4.71;100.00;100165.05;1753482;81;21236;-84
2022/03/02 12:24:37;;;;;;;5.30;4.33;;;;;;;4.77;100.00;100164.47;1756742;81;21229;-77
2022/03/02 12:27:42;;;;;;;6.28;4.53;;;;;;;4.86;100.00;100161.76;1738749;81;21888;-76
2022/03/02 12:30:48;;;;;;;6.78;4.40;;;;;;;4.91;100.00;100152.34;1764575;81;22130;-77
2022/03/02 12:33:54;;;;;;;7.75;5.03;;;;;;;4.88;100.00;100157.53;1744331;81;21492;-76
2022/03/02 12:37:02;;;;;;;8.25;4.95;;;;;;;4.81;100.00;100164.05;1758847;80;21623;-84
2022/03/02 12:40:09;;;;;;;7.55;5.12;;;;;;;4.78;100.00;100158.90;1748322;81;21312;-75
2022/03/02 12:43:22;;;;;;;6.62;4.67;;;;;;;4.79;100.00;100159.75;1771931;80;21672;-82
2022/03/02 12:46:23;;;;;;;8.23;4.65;;;;;;;4.76;100.00;100160.91;1748786;81;21297;-81
2022/03/02 12:49:29;;;;;;;5.60;4.47;;;;;;;4.74;99.30;100157.47;1740348;82;21767;-82
2022/03/02 12:52:35;;;;;;;5.45;4.30;;;;;;;4.73;98.27;100150.34;1768699;80;21320;-82
2022/03/02 12:55:42;;;;;;;5.22;4.15;;;;;;;4.75;98.02;100148.36;1770859;81;21593;-82
2022/03/02 12:58:48;;;;;;;7.47;5.25;;;;;;;4.75;97.77;100151.08;1760252;81;21261;-81
2022/03/02 13:01:53;;;;;;;7.37;4.58;;;;;;;4.74;97.43;100147.98;1740371;81;21823;-76
2022/03/02 13:05:21;;;;;;;6.67;4.92;;;;;;;4.72;97.59;100144.58;1740120;82;21194;-75
2022/03/02 13:08:39;;;;;;;5.17;4.08;;;;;;;4.73;97.30;100144.07;1733824;82;21299;-79
2022/03/02 13:11:45;;;;;;;5.25;4.42;;;;;;;4.73;96.91;100150.34;1741193;81;21232;-75
2022/03/02 13:14:51;;;;;;;7.08;5.42;;;;;;;4.73;96.42;100150.84;1734261;82;21173;-74
2022/03/02 13:18:20;;;;;;;8.85;5.30;;;;;;;4.73;95.33;100140.86;1733595;82;21287;-75
2022/03/02 13:21:28;;;;;;;7.25;4.92;;;;;;;4.74;94.74;100142.56;1749930;81;21904;-82
2022/03/02 13:24:36;;;;;;;7.05;4.60;;;;;;;4.79;94.56;100139.42;1769950;81;21233;-77
2022/03/02 13:27:41;;;;;;;6.25;4.58;;;;;;;4.80;93.60;100137.09;1770355;81;21331;-75
2022/03/02 13:30:45;;;;;;;5.30;4.25;;;;;;;4.81;93.08;100142.36;1770451;81;21162;-81
2022/03/02 13:34:16;;;;;;;5.40;4.22;;;;;;;4.81;92.18;100139.66;1770673;81;21288;-78
2022/03/02 13:37:18;;;;;;;6.83;4.45;;;;;;;4.81;92.28;100131.52;1736596;81;21295;-82
2022/03/02 13:40:43;;;;;;;10.03;4.42;;;;;;;4.81;91.43;100128.81;1729639;83;21153;-82
2022/03/02 13:43:47;;;;;;;4.58;3.85;;;;;;;4.81;90.42;100134.23;1710469;83;21298;-77
2022/03/02 13:46:55;;;;;;;6.22;4.05;;;;;;;4.80;90.19;100122.19;1729563;83;21327;-76
2022/03/02 13:50:08;;;;;;;5.60;4.08;;;;;;;4.80;90.14;100120.84;1713779;83;21314;-84
2022/03/02 13:53:13;;;;;;;8.98;4.10;;;;;;;4.79;89.92;100118.59;1758215;81;21314;-77
2022/03/02 13:56:40;;;;;;;4.35;3.80;;;;;;;4.78;90.10;100123.67;1767684;81;21286;-83
2022/03/02 13:59:46;;;;;;;6.62;4.47;;;;;;;4.74;90.21;100115.47;1768173;81;21270;-80
2022/03/02 14:02:59;;;;;;;5.95;4.60;;;;;;;4.69;90.24;100119.11;1768078;81;21900;-77
2022/03/02 14:06:06;;;;;;;6.67;4.67;;;;;;;4.67;90.16;100115.70;1767695;81;21353;-84
2022/03/02 14:09:16;;;;;;;7.70;4.65;;;;;;;4.66;90.09;100110.41;1766624;81;21326;-77
2022/03/02 14:12:22;;;;;;;8.03;5.37;;;;;;;4.65;90.03;100119.54;1767787;81;21852;-77
2022/03/02 14:15:30;;;;;;;4.37;3.67;;;;;;;4.63;89.78;100116.98;1767567;81;21192;-77
2022/03/02 14:18:37;;;;;;;6.62;4.72;;;;;;;4.61;88.89;100106.77;1767494;81;22176;-76
2022/03/02 14:21:42;;;;;;;5.95;4.10;;;;;;;4.59;89.22;100114.20;1765884;80;21297;-77